Terminal Aerodrome Forecast
Issued by NWS

Home | Current Version | Previous Version | Text Only | Print | Product List | Glossary On
Versions: 1 2 3 4 5 6 7 8 9 10 11 12 13 14 15 16 17 18 19 20 21 22 23 24 25 26 27
000
FTUS43 KIND 270800 AAA
TAFLAF
TAF AMD
KLAF 270825Z 2708/2806 VRB04KT P6SM SCT008 OVC015
      TEMPO 2709/2713 4SM -SN BR OVC008
     FM271600 05007KT P6SM SCT025 BKN050
     FM272000 01007KT P6SM SCT050
     FM280000 VRB02KT P6SM SCT250
      AMD LTD TO CLD VIS AND WIND TIL 271400=

USA.gov is the U.S. government's official web portal to all federal, state and local government web resources and services.